createdAt,value
2018-12-19T00:01:54.901Z,22.13
2018-12-19T00:04:22.473Z,21.37
2018-12-19T00:06:50.030Z,23.30
2018-12-19T00:09:18.630Z,22.33
2018-12-19T00:11:46.154Z,20.57
2018-12-19T00:14:13.704Z,23.17
2018-12-19T00:16:41.417Z,23.67
2018-12-19T00:19:08.957Z,21.63
2018-12-19T00:21:36.529Z,21.53
2018-12-19T00:24:04.153Z,22.00
2018-12-19T00:26:31.733Z,22.80
2018-12-19T00:28:59.277Z,22.67
2018-12-19T00:31:26.915Z,22.67
2018-12-19T00:33:54.450Z,21.67
2018-12-19T00:36:22.014Z,22.33
2018-12-19T00:38:49.785Z,22.30
2018-12-19T00:41:25.022Z,22.57
2018-12-19T00:43:52.807Z,23.20
2018-12-19T00:46:20.372Z,21.57
2018-12-19T00:48:47.938Z,21.17
2018-12-19T00:51:15.708Z,21.60
2018-12-19T00:53:43.297Z,21.00
2018-12-19T00:56:10.882Z,21.43
2018-12-19T00:58:38.461Z,21.07
2018-12-19T01:01:06.015Z,19.53
2018-12-19T01:03:33.575Z,19.57
2018-12-19T01:06:01.192Z,18.30
2018-12-19T01:08:28.735Z,19.77
2018-12-19T01:11:17.981Z,19.30
2018-12-19T01:13:45.536Z,18.20
2018-12-19T01:16:13.079Z,18.33
2018-12-19T01:18:40.757Z,18.57
2018-12-19T01:21:08.295Z,17.70
2018-12-19T01:23:35.840Z,18.73
2018-12-19T01:26:03.696Z,18.90
2018-12-19T01:28:31.224Z,20.20
2018-12-19T01:30:58.765Z,18.40
2018-12-19T01:33:26.734Z,19.27
2018-12-19T01:35:54.300Z,18.63
2018-12-19T01:38:21.850Z,18.63
2018-12-19T01:40:49.536Z,18.93
2018-12-19T01:43:17.093Z,18.70
2018-12-19T01:45:44.674Z,17.97
2018-12-19T01:48:12.339Z,20.57
2018-12-19T01:50:39.953Z,17.73
2018-12-19T01:53:07.513Z,18.53
2018-12-19T01:55:35.220Z,20.47
2018-12-19T01:58:02.757Z,19.97
2018-12-19T02:00:31.188Z,18.47
2018-12-19T02:02:59.148Z,17.00
2018-12-19T02:05:26.685Z,21.50
2018-12-19T02:07:54.253Z,20.30
2018-12-19T02:10:21.965Z,18.87
2018-12-19T02:12:49.505Z,18.50
2018-12-19T02:15:17.044Z,18.23
2018-12-19T02:17:44.659Z,26.00
2018-12-19T02:20:12.193Z,24.60
2018-12-19T02:22:39.754Z,31.50
2018-12-19T02:25:07.636Z,27.57
2018-12-19T02:27:35.181Z,28.93
2018-12-19T02:30:02.766Z,21.80
2018-12-19T02:32:30.360Z,27.87
2018-12-19T02:34:57.916Z,29.27
2018-12-19T02:37:25.445Z,21.13
2018-12-19T02:39:53.190Z,31.57
2018-12-19T02:42:20.734Z,25.97
2018-12-19T02:44:48.274Z,32.70
2018-12-19T02:47:16.195Z,30.37
2018-12-19T02:49:43.739Z,35.23
2018-12-19T02:52:11.277Z,32.60
2018-12-19T02:54:39.272Z,30.07
2018-12-19T02:57:06.822Z,38.93
2018-12-19T02:59:34.354Z,41.90
2018-12-19T03:02:02.061Z,36.47
2018-12-19T03:04:29.613Z,33.90
2018-12-19T03:06:57.173Z,31.50
2018-12-19T03:09:24.810Z,28.77
2018-12-19T03:11:52.370Z,33.27
2018-12-19T03:14:19.917Z,36.03
2018-12-19T03:16:47.697Z,28.87
2018-12-19T03:19:15.268Z,29.63
2018-12-19T03:21:42.827Z,26.13
2018-12-19T03:24:10.410Z,24.10
2018-12-19T03:26:37.945Z,28.77
2018-12-19T03:29:05.497Z,40.97
2018-12-19T03:31:33.232Z,19.27
2018-12-19T03:34:00.782Z,18.97
2018-12-19T03:36:28.321Z,36.13
2018-12-19T03:38:56.033Z,28.10
2018-12-19T03:41:23.584Z,21.10
2018-12-19T03:43:51.154Z,25.37
2018-12-19T03:46:18.881Z,22.33
2018-12-19T03:48:52.073Z,24.50
2018-12-19T03:51:27.228Z,31.93
2018-12-19T03:53:54.793Z,24.40
2018-12-19T03:56:22.309Z,22.87
2018-12-19T03:58:50.023Z,24.53
2018-12-19T04:01:17.572Z,25.60
2018-12-19T04:03:45.142Z,21.30
2018-12-19T04:06:12.760Z,25.60
2018-12-19T04:08:40.338Z,19.07
2018-12-19T04:11:08.880Z,28.87
2018-12-19T04:13:36.671Z,32.17
2018-12-19T04:16:04.277Z,29.23
2018-12-19T04:18:31.798Z,30.03
2018-12-19T04:20:59.406Z,29.50
2018-12-19T04:23:26.965Z,29.33
2018-12-19T04:25:54.542Z,28.40
2018-12-19T04:28:22.210Z,29.40
2018-12-19T04:30:49.782Z,27.40
2018-12-19T04:33:17.329Z,27.03
2018-12-19T04:35:45.082Z,35.00
2018-12-19T04:38:12.681Z,54.67
2018-12-19T04:40:40.254Z,39.03
2018-12-19T04:43:08.621Z,30.70
2018-12-19T04:45:36.162Z,29.17
2018-12-19T04:48:03.702Z,27.43
2018-12-19T04:50:31.434Z,27.50
2018-12-19T04:52:58.981Z,30.03
2018-12-19T04:55:26.543Z,28.00
2018-12-19T04:57:54.413Z,79.43
2018-12-19T05:00:22.057Z,102.57
2018-12-19T05:02:49.595Z,96.13
2018-12-19T05:05:17.345Z,116.80
2018-12-19T05:07:44.963Z,96.67
2018-12-19T05:10:12.685Z,92.37
2018-12-19T05:12:40.220Z,98.97
2018-12-19T05:15:07.794Z,153.70
2018-12-19T05:17:35.386Z,126.00
2018-12-19T05:20:04.328Z,125.80
2018-12-19T05:22:31.857Z,136.03
2018-12-19T05:24:59.414Z,138.87
2018-12-19T05:27:27.040Z,125.57
2018-12-19T05:29:54.578Z,110.73
2018-12-19T05:32:22.143Z,98.30
2018-12-19T05:34:49.714Z,111.37
2018-12-19T05:37:17.278Z,103.30
2018-12-19T05:39:44.869Z,82.00
2018-12-19T05:42:12.500Z,72.27
2018-12-19T05:44:40.041Z,58.37
2018-12-19T05:47:08.539Z,55.10
2018-12-19T05:49:35.598Z,80.13
2018-12-19T05:52:03.166Z,76.40
2018-12-19T05:54:30.749Z,84.70
2018-12-19T05:56:58.363Z,93.87
2018-12-19T05:59:25.925Z,90.60
2018-12-19T06:01:53.471Z,83.87
2018-12-19T06:04:21.091Z,89.03
2018-12-19T06:06:48.624Z,87.73
2018-12-19T06:09:17.017Z,84.83
2018-12-19T06:11:44.745Z,88.87
2018-12-19T06:14:12.336Z,96.37
2018-12-19T06:16:39.874Z,64.20
2018-12-19T06:19:07.483Z,30.23
2018-12-19T06:21:35.102Z,22.60
2018-12-19T06:24:02.648Z,21.53
2018-12-19T06:26:30.398Z,18.93
2018-12-19T06:28:57.953Z,19.97
2018-12-19T06:31:25.476Z,21.30
2018-12-19T06:33:53.462Z,18.93
2018-12-19T06:36:21.049Z,18.73
2018-12-19T06:38:48.590Z,22.77
2018-12-19T06:41:16.357Z,46.83
2018-12-19T06:43:43.914Z,58.17
2018-12-19T06:46:11.520Z,45.47
2018-12-19T06:48:39.137Z,38.33
2018-12-19T06:51:06.750Z,45.40
2018-12-19T06:53:34.322Z,32.70
2018-12-19T06:56:02.042Z,27.97
2018-12-19T06:58:29.619Z,50.70
2018-12-19T07:00:57.209Z,30.00
2018-12-19T07:03:25.191Z,28.50
2018-12-19T07:05:52.765Z,30.20
2018-12-19T07:08:20.317Z,33.63
2018-12-19T07:10:48.246Z,41.30
2018-12-19T07:13:15.770Z,31.17
2018-12-19T07:15:43.313Z,21.83
2018-12-19T07:18:10.885Z,23.73
2018-12-19T07:20:38.477Z,23.37
2018-12-19T07:23:06.029Z,21.90
2018-12-19T07:25:33.731Z,20.13
2018-12-19T07:28:01.333Z,18.13
2018-12-19T07:30:28.894Z,19.03
2018-12-19T07:32:56.798Z,20.20
2018-12-19T07:35:24.349Z,18.70
2018-12-19T07:37:51.897Z,20.30
2018-12-19T07:40:19.531Z,21.07
2018-12-19T07:42:47.078Z,16.43
2018-12-19T07:45:14.606Z,18.90
2018-12-19T07:47:42.530Z,19.37
2018-12-19T07:50:10.110Z,18.40
2018-12-19T07:52:37.652Z,17.50
2018-12-19T07:55:05.393Z,20.20
2018-12-19T07:57:32.968Z,19.10
2018-12-19T08:00:00.537Z,19.67
2018-12-19T08:02:28.197Z,18.53
2018-12-19T08:04:55.792Z,19.80
2018-12-19T08:07:23.376Z,21.57
2018-12-19T08:09:51.169Z,19.33
2018-12-19T08:12:18.763Z,20.43
2018-12-19T08:14:46.332Z,21.73
2018-12-19T08:17:14.368Z,21.67
2018-12-19T08:19:59.441Z,23.67
2018-12-19T08:22:27.293Z,23.07
2018-12-19T08:24:54.824Z,23.60
2018-12-19T08:27:22.397Z,24.53
2018-12-19T08:29:50.023Z,42.63
2018-12-19T08:32:17.584Z,24.13
2018-12-19T08:34:45.150Z,20.00
2018-12-19T08:37:12.877Z,24.03
2018-12-19T08:39:40.477Z,24.47
2018-12-19T08:42:08.090Z,24.17
2018-12-19T08:44:35.830Z,20.93
2018-12-19T08:47:03.440Z,17.93
2018-12-19T08:49:31.026Z,19.13
2018-12-19T08:51:58.740Z,25.23
2018-12-19T08:54:26.291Z,20.00
2018-12-19T08:56:53.854Z,17.97
2018-12-19T08:59:21.578Z,17.43
2018-12-19T09:01:49.213Z,17.40
2018-12-19T09:04:16.822Z,36.70
2018-12-19T09:06:44.663Z,130.63
2018-12-19T09:09:12.239Z,43.00
2018-12-19T09:11:39.841Z,55.70
2018-12-19T09:14:07.450Z,32.33
2018-12-19T09:16:35.037Z,40.07
2018-12-19T09:19:02.617Z,38.07
2018-12-19T09:21:30.253Z,37.80
2018-12-19T09:23:58.163Z,20.13
2018-12-19T09:26:25.848Z,31.20
2018-12-19T09:28:53.573Z,31.10
2018-12-19T09:31:23.170Z,27.47
2018-12-19T09:33:51.602Z,23.60
2018-12-19T09:36:19.576Z,23.27
2018-12-19T09:38:47.143Z,19.30
2018-12-19T09:41:14.731Z,27.07
2018-12-19T09:43:42.351Z,25.37
2018-12-19T09:46:09.953Z,19.47
2018-12-19T09:48:37.537Z,27.60
2018-12-19T09:51:13.342Z,33.23
2018-12-19T09:53:41.477Z,17.90
2018-12-19T09:56:09.093Z,27.53
2018-12-19T09:58:37.070Z,21.80
2018-12-19T10:01:05.508Z,23.90
2018-12-19T10:03:32.400Z,20.90
2018-12-19T10:06:02.272Z,22.67
2018-12-19T10:08:30.116Z,23.10
2018-12-19T10:11:02.057Z,22.80
2018-12-19T10:13:29.936Z,24.37
2018-12-19T10:15:57.949Z,25.70
2018-12-19T10:18:26.261Z,20.37
2018-12-19T10:20:57.660Z,20.60
2018-12-19T10:23:25.537Z,20.50
2018-12-19T10:26:12.926Z,17.63
2018-12-19T10:28:40.638Z,20.93
2018-12-19T10:31:08.322Z,21.30
2018-12-19T10:33:35.999Z,18.20
2018-12-19T10:36:04.589Z,21.03
2018-12-19T10:38:32.174Z,21.07
2018-12-19T10:40:59.802Z,19.40
2018-12-19T10:43:27.548Z,19.40
2018-12-19T10:45:55.241Z,18.10
2018-12-19T10:48:23.166Z,18.43
2018-12-19T10:50:52.359Z,18.50
2018-12-19T10:53:18.589Z,21.23
2018-12-19T10:55:46.268Z,19.47
2018-12-19T10:58:14.003Z,19.30
2018-12-19T11:00:46.993Z,20.63
2018-12-19T11:03:14.732Z,18.73
2018-12-19T11:05:42.344Z,20.00
2018-12-19T11:08:10.043Z,24.47
2018-12-19T11:10:39.627Z,25.57
2018-12-19T11:13:09.203Z,30.20
2018-12-19T11:15:36.808Z,23.53
2018-12-19T11:18:04.865Z,18.87
2018-12-19T11:20:33.208Z,18.90
2018-12-19T11:23:02.010Z,17.53
2018-12-19T11:25:29.767Z,16.87
2018-12-19T11:27:58.492Z,19.50
2018-12-19T11:30:26.086Z,18.43
2018-12-19T11:32:53.772Z,19.03
2018-12-19T11:35:21.749Z,18.30
2018-12-19T11:37:50.190Z,19.47
2018-12-19T11:40:18.423Z,17.83
2018-12-19T11:42:46.270Z,20.63
2018-12-19T11:45:13.945Z,21.23
2018-12-19T11:47:41.588Z,18.87
2018-12-19T11:50:09.370Z,17.17
2018-12-19T11:52:36.950Z,18.50
2018-12-19T11:55:04.948Z,21.07
2018-12-19T11:57:32.539Z,19.87
2018-12-19T12:00:00.130Z,19.17
2018-12-19T12:02:27.786Z,21.00
2018-12-19T12:04:56.104Z,20.87
2018-12-19T12:07:23.917Z,20.20
2018-12-19T12:09:52.359Z,22.67
2018-12-19T12:12:19.929Z,17.77
2018-12-19T12:14:47.789Z,17.13
2018-12-19T12:17:15.685Z,18.40
2018-12-19T12:19:43.305Z,21.90
2018-12-19T12:22:11.175Z,28.30
2018-12-19T12:24:38.852Z,20.50
2018-12-19T12:27:06.468Z,19.77
2018-12-19T12:29:34.135Z,22.10
2018-12-19T12:32:02.826Z,24.73
2018-12-19T12:34:31.209Z,21.50
2018-12-19T12:36:58.897Z,16.13
2018-12-19T12:39:26.937Z,15.57
2018-12-19T12:41:54.531Z,16.77
2018-12-19T12:44:22.104Z,16.33
2018-12-19T12:46:49.826Z,18.77
2018-12-19T12:49:17.377Z,16.97
2018-12-19T12:51:45.008Z,15.60
2018-12-19T12:54:12.847Z,14.43
2018-12-19T12:56:40.472Z,17.03
2018-12-19T12:59:08.068Z,16.63
2018-12-19T13:01:37.667Z,16.80
2018-12-19T13:04:05.308Z,13.63
2018-12-19T13:06:32.921Z,16.37
2018-12-19T13:09:00.773Z,18.20
2018-12-19T13:11:29.168Z,16.70
2018-12-19T13:13:56.763Z,17.17
2018-12-19T13:16:24.465Z,16.63
2018-12-19T13:18:52.064Z,17.73
2018-12-19T13:21:19.695Z,18.37
2018-12-19T13:23:47.544Z,17.10
2018-12-19T13:26:15.414Z,14.97
2018-12-19T13:28:42.986Z,20.77
2018-12-19T13:31:10.705Z,15.10
2018-12-19T13:33:38.344Z,16.50
2018-12-19T13:36:06.666Z,15.30
2018-12-19T13:38:34.392Z,14.97
2018-12-19T13:41:02.012Z,21.13
2018-12-19T13:43:29.588Z,18.93
2018-12-19T13:45:57.865Z,16.07
2018-12-19T13:48:26.412Z,19.63
2018-12-19T13:50:54.047Z,21.50
2018-12-19T13:53:21.730Z,18.10
2018-12-19T13:55:49.320Z,20.13
2018-12-19T13:58:16.921Z,22.47
2018-12-19T14:00:44.802Z,24.97
2018-12-19T14:03:12.950Z,24.07
2018-12-19T14:05:40.537Z,20.00
2018-12-19T14:08:08.197Z,35.47
2018-12-19T14:10:36.463Z,36.80
2018-12-19T14:13:04.389Z,30.90
2018-12-19T14:15:32.125Z,30.83
2018-12-19T14:17:59.789Z,26.23
2018-12-19T14:20:27.343Z,25.17
2018-12-19T14:22:55.059Z,47.57
2018-12-19T14:25:22.707Z,37.10
2018-12-19T14:27:50.572Z,37.50
2018-12-19T14:30:18.242Z,34.33
2018-12-19T14:32:45.802Z,46.20
2018-12-19T14:35:13.423Z,48.80
2018-12-19T14:37:41.152Z,45.50
2018-12-19T14:40:08.758Z,45.37
2018-12-19T14:42:36.362Z,44.80
2018-12-19T14:45:05.062Z,47.43
2018-12-19T14:47:32.679Z,43.23
2018-12-19T14:50:00.247Z,59.57
2018-12-19T14:52:27.883Z,71.40
2018-12-19T14:54:56.350Z,65.30
2018-12-19T14:57:23.935Z,57.53
2018-12-19T14:59:52.098Z,129.07
2018-12-19T15:02:20.680Z,75.43
2018-12-19T15:04:48.949Z,44.10
2018-12-19T15:07:15.989Z,37.43
2018-12-19T15:09:43.566Z,38.50
2018-12-19T15:12:11.162Z,46.67
2018-12-19T15:14:39.602Z,48.77
2018-12-19T15:17:13.690Z,45.53
2018-12-19T15:19:34.929Z,45.07
2018-12-19T15:22:02.970Z,44.00
2018-12-19T15:24:30.530Z,43.03
2018-12-19T15:26:58.128Z,44.97
2018-12-19T15:29:26.537Z,54.43
2018-12-19T15:31:54.105Z,100.87
2018-12-19T15:34:21.781Z,80.23
2018-12-19T15:36:49.532Z,77.10
2018-12-19T15:39:17.128Z,143.47
2018-12-19T15:41:44.969Z,86.87
2018-12-19T15:44:13.361Z,129.20
2018-12-19T15:46:40.976Z,109.20
2018-12-19T15:49:08.540Z,175.70
2018-12-19T15:51:36.446Z,153.20
2018-12-19T15:54:04.034Z,105.93
2018-12-19T15:56:31.573Z,159.67
2018-12-19T15:59:01.004Z,185.00
2018-12-19T16:01:28.812Z,148.47
2018-12-19T16:03:56.366Z,140.80
2018-12-19T16:06:25.068Z,133.47
2018-12-19T16:08:52.649Z,130.10
2018-12-19T16:11:20.189Z,132.83
2018-12-19T16:13:47.904Z,133.30
2018-12-19T16:16:15.514Z,135.10
2018-12-19T16:18:43.272Z,173.90
2018-12-19T16:21:11.009Z,212.53
2018-12-19T16:23:38.579Z,339.60
2018-12-19T16:26:06.118Z,193.50
2018-12-19T16:28:40.887Z,146.43
2018-12-19T16:31:09.097Z,142.83
2018-12-19T16:33:36.686Z,151.53
2018-12-19T16:36:04.311Z,302.13
2018-12-19T16:38:31.859Z,147.30
2018-12-19T16:40:59.793Z,136.63
2018-12-19T16:43:27.653Z,220.47
2018-12-19T16:45:55.323Z,310.03
2018-12-19T16:48:23.361Z,277.23
2018-12-19T16:50:51.013Z,350.37
2018-12-19T16:53:18.580Z,423.53
2018-12-19T16:55:46.135Z,234.83
2018-12-19T16:58:14.390Z,143.27
2018-12-19T17:00:41.945Z,144.53
2018-12-19T17:03:09.569Z,52.70
2018-12-19T17:05:37.194Z,51.80
2018-12-19T17:08:04.757Z,60.40
2018-12-19T17:10:32.313Z,65.73
2018-12-19T17:13:00.205Z,120.73
2018-12-19T17:15:27.777Z,126.60
2018-12-19T17:17:55.347Z,55.83
2018-12-19T17:20:23.197Z,90.80
2018-12-19T17:22:50.773Z,117.03
2018-12-19T17:25:18.404Z,89.73
2018-12-19T17:27:46.116Z,85.13
2018-12-19T17:30:13.810Z,75.47
2018-12-19T17:32:41.418Z,80.97
2018-12-19T17:35:09.219Z,88.67
2018-12-19T17:37:36.812Z,69.73
2018-12-19T17:40:04.488Z,51.97
2018-12-19T17:42:32.084Z,46.40
2018-12-19T17:44:59.667Z,45.53
2018-12-19T17:47:27.241Z,34.50
2018-12-19T17:49:55.162Z,29.83
2018-12-19T17:52:22.709Z,30.33
2018-12-19T17:54:50.263Z,31.13
2018-12-19T17:57:18.189Z,36.57
2018-12-19T17:59:45.769Z,33.53
2018-12-19T18:02:13.386Z,40.30
2018-12-19T18:04:41.090Z,35.60
2018-12-19T18:07:08.674Z,35.23
2018-12-19T18:09:36.232Z,40.77
2018-12-19T18:12:03.884Z,54.80
2018-12-19T18:14:31.434Z,61.83
2018-12-19T18:16:58.967Z,52.23
2018-12-19T18:19:26.522Z,36.27
2018-12-19T18:21:54.137Z,36.97
2018-12-19T18:24:22.065Z,35.00
2018-12-19T18:26:49.641Z,36.43
2018-12-19T18:29:17.267Z,38.13
2018-12-19T18:31:44.821Z,42.37
2018-12-19T18:34:12.505Z,51.37
2018-12-19T18:36:40.074Z,48.43
2018-12-19T18:39:07.689Z,37.97
2018-12-19T18:41:35.379Z,55.43
2018-12-19T18:44:03.009Z,60.27
2018-12-19T18:46:30.602Z,76.67
2018-12-19T18:48:58.294Z,72.07
2018-12-19T18:51:25.881Z,75.40
2018-12-19T18:53:53.453Z,79.27
2018-12-19T18:56:21.190Z,74.97
2018-12-19T18:58:48.761Z,57.47
2018-12-19T19:01:16.350Z,42.90
2018-12-19T19:03:44.091Z,39.17
2018-12-19T19:06:11.682Z,51.93
2018-12-19T19:08:39.273Z,54.13
2018-12-19T19:11:11.966Z,48.47
2018-12-19T19:13:39.585Z,38.53
2018-12-19T19:16:07.135Z,36.77
2018-12-19T19:18:34.893Z,39.37
2018-12-19T19:21:02.467Z,39.13
2018-12-19T19:23:30.076Z,41.10
2018-12-19T19:25:57.730Z,44.33
2018-12-19T19:28:25.321Z,40.33
2018-12-19T19:31:11.124Z,40.07
2018-12-19T19:33:38.710Z,36.60
2018-12-19T19:36:06.342Z,38.50
2018-12-19T19:38:34.042Z,30.20
2018-12-19T19:41:01.587Z,29.83
2018-12-19T19:43:29.147Z,26.97
2018-12-19T19:45:56.858Z,25.20
2018-12-19T19:48:24.429Z,35.20
2018-12-19T19:50:52.006Z,24.73
2018-12-19T19:53:19.609Z,25.30
2018-12-19T19:55:47.186Z,26.07
2018-12-19T19:58:14.752Z,23.60
2018-12-19T20:00:42.479Z,25.33
2018-12-19T20:03:10.071Z,23.00
2018-12-19T20:05:37.628Z,34.17
2018-12-19T20:08:05.281Z,40.97
2018-12-19T20:10:32.825Z,25.17
2018-12-19T20:13:00.380Z,19.80
2018-12-19T20:15:28.931Z,21.97
2018-12-19T20:17:56.504Z,20.50
2018-12-19T20:20:24.081Z,23.37
2018-12-19T20:22:52.143Z,19.80
2018-12-19T20:25:21.000Z,20.70
2018-12-19T20:27:47.322Z,20.53
2018-12-19T20:30:15.059Z,22.70
2018-12-19T20:32:42.621Z,22.43
2018-12-19T20:35:10.190Z,23.97
2018-12-19T20:37:38.006Z,23.93
2018-12-19T20:40:05.868Z,25.40
2018-12-19T20:42:33.441Z,24.83
2018-12-19T20:45:01.274Z,22.50
2018-12-19T20:47:28.856Z,23.47
2018-12-19T20:49:56.422Z,20.70
2018-12-19T20:52:24.024Z,22.50
2018-12-19T20:54:51.598Z,27.23
2018-12-19T20:57:19.186Z,29.87
2018-12-19T20:59:46.931Z,25.90
2018-12-19T21:02:14.529Z,22.77
2018-12-19T21:04:42.089Z,30.90
2018-12-19T21:07:09.779Z,23.53
2018-12-19T21:09:37.362Z,26.53
2018-12-19T21:12:05.046Z,25.60
2018-12-19T21:14:33.171Z,26.60
2018-12-19T21:17:05.881Z,26.67
2018-12-19T21:19:33.474Z,23.83
2018-12-19T21:22:01.034Z,23.43
2018-12-19T21:24:28.602Z,21.57
2018-12-19T21:26:56.440Z,26.77
2018-12-19T21:29:24.042Z,24.70
2018-12-19T21:31:51.646Z,23.37
2018-12-19T21:34:19.321Z,20.97
2018-12-19T21:36:46.895Z,19.63
2018-12-19T21:39:14.493Z,19.07
2018-12-19T21:41:42.129Z,17.80
2018-12-19T21:44:09.696Z,17.20
2018-12-19T21:46:37.306Z,18.57
2018-12-19T21:49:05.024Z,19.77
2018-12-19T21:51:32.665Z,17.33
2018-12-19T21:54:00.238Z,17.43
2018-12-19T21:56:28.103Z,18.57
2018-12-19T21:58:55.685Z,18.03
2018-12-19T22:01:23.314Z,18.07
2018-12-19T22:03:51.086Z,18.13
2018-12-19T22:06:18.650Z,17.87
2018-12-19T22:08:46.210Z,18.67
2018-12-19T22:11:13.858Z,18.97
2018-12-19T22:13:41.481Z,19.43
2018-12-19T22:16:09.096Z,20.50
2018-12-19T22:18:47.307Z,19.93
2018-12-19T22:21:15.827Z,18.90
2018-12-19T22:23:43.403Z,19.07
2018-12-19T22:26:11.098Z,21.80
2018-12-19T22:28:38.701Z,21.73
2018-12-19T22:31:06.288Z,21.17
2018-12-19T22:33:34.058Z,20.00
2018-12-19T22:36:01.699Z,18.23
2018-12-19T22:38:29.322Z,19.40
2018-12-19T22:40:57.046Z,18.93
2018-12-19T22:43:25.469Z,19.50
2018-12-19T22:45:53.035Z,17.57
2018-12-19T22:48:20.945Z,18.37
2018-12-19T22:50:48.613Z,17.47
2018-12-19T22:53:16.144Z,17.30
2018-12-19T22:55:43.819Z,17.90
2018-12-19T22:58:11.520Z,17.27
2018-12-19T23:00:44.814Z,17.73
2018-12-19T23:03:12.378Z,16.67
2018-12-19T23:05:45.771Z,16.97
2018-12-19T23:08:13.448Z,17.43
2018-12-19T23:10:40.964Z,16.73
2018-12-19T23:13:08.692Z,16.23
2018-12-19T23:15:36.371Z,16.80
2018-12-19T23:18:09.731Z,16.83
2018-12-19T23:20:37.341Z,17.67
2018-12-19T23:23:04.966Z,17.03
2018-12-19T23:25:32.679Z,16.93
2018-12-19T23:28:00.237Z,16.60
2018-12-19T23:30:27.897Z,17.10
2018-12-19T23:32:55.505Z,18.27
2018-12-19T23:35:23.079Z,17.40
2018-12-19T23:37:50.649Z,17.13
2018-12-19T23:40:18.498Z,18.30
2018-12-19T23:42:46.131Z,18.50
2018-12-19T23:45:13.722Z,17.53
2018-12-19T23:47:41.387Z,18.63
2018-12-19T23:50:08.993Z,21.40
2018-12-19T23:52:36.542Z,21.97
2018-12-19T23:55:04.583Z,20.57
2018-12-19T23:57:32.301Z,20.03
2018-12-19T23:59:59.747Z,19.67
